Wetterdaten: Woche 28.02.05 - 06.03.05 (KW9)
Datum Zeit Temperatur Luftfeuchte Luftdruck Niederschlag Windrichtung Taupunkt Windchill Wind
28.02.2005 00:00 -10,7 C 79 % 1017 hPa 0,0 l/m N -13,7 C -19,5 C 17,2 km/h (3 Bft)
28.02.2005 01:00 -11,3 C 79 % 1017 hPa 0,0 l/m N-NO -14,2 C -19,6 C 15,8 km/h (3 Bft)
28.02.2005 02:00 -12,0 C 79 % 1017 hPa 0,0 l/m N -14,8 C -19,6 C 15,2 km/h (3 Bft)
28.02.2005 03:00 -12,4 C 79 % 1018 hPa 0,0 l/m N -15,3 C -18,0 C 12,4 km/h (3 Bft)
28.02.2005 04:00 -12,9 C 79 % 1018 hPa 0,0 l/m N-NO -15,7 C -14,8 C 8,1 km/h (2 Bft)
28.02.2005 05:00 -12,7 C 79 % 1018 hPa 0,0 l/m N -15,6 C -16,9 C 10,9 km/h (2 Bft)
28.02.2005 06:00 -12,8 C 79 % 1019 hPa 0,0 l/m N -15,7 C -16,4 C 10,0 km/h (2 Bft)
28.02.2005 07:00 -12,8 C 79 % 1019 hPa 0,0 l/m N -15,6 C -17,4 C 11,0 km/h (2 Bft)
28.02.2005 08:00 -12,2 C 79 % 1020 hPa 0,0 l/m N -15,1 C -17,9 C 12,8 km/h (3 Bft)
28.02.2005 09:00 -11,4 C 79 % 1020 hPa 0,0 l/m N-NO -14,3 C -17,1 C 12,5 km/h (3 Bft)
28.02.2005 10:00 -9,8 C 70 % 1020 hPa 0,0 l/m N-NO -14,3 C -17,4 C 14,6 km/h (3 Bft)
28.02.2005 11:00 -8,5 C 64 % 1020 hPa 0,0 l/m N-NO -14,1 C -16,8 C 16,3 km/h (3 Bft)
28.02.2005 12:00 -6,9 C 58 % 1020 hPa 0,0 l/m NO -13,8 C -15,4 C 16,9 km/h (3 Bft)
28.02.2005 13:00 -5,5 C 54 % 1019 hPa 0,0 l/m N-NO -13,3 C -12,7 C 15,1 km/h (3 Bft)
28.02.2005 14:00 -5,6 C 52 % 1018 hPa 0,0 l/m N-NO -13,8 C -12,0 C 14,5 km/h (3 Bft)
28.02.2005 15:00 -6,9 C 56 % 1018 hPa 0,0 l/m N-NO -14,2 C -13,2 C 13,2 km/h (3 Bft)
28.02.2005 16:00 -7,0 C 55 % 1018 hPa 0,0 l/m N-NO -14,6 C -11,2 C 11,8 km/h (2 Bft)
28.02.2005 17:00 -7,6 C 55 % 1017 hPa 0,0 l/m N-NO -14,9 C -9,4 C 8,0 km/h (2 Bft)
28.02.2005 18:00 -9,4 C 58 % 1017 hPa 0,0 l/m N -16,1 C -9,9 C 2,9 km/h (1 Bft)
28.02.2005 19:00 -11,3 C 60 % 1017 hPa 0,0 l/m N-NW -17,5 C -11,9 C 3,7 km/h (1 Bft)
28.02.2005 20:00 -12,6 C 60 % 1017 hPa 0,0 l/m NW -18,7 C -12,6 C 1,3 km/h (1 Bft)
28.02.2005 21:00 -13,4 C 60 % 1017 hPa 0,0 l/m N-NW -19,5 C -14,0 C 5,2 km/h (1 Bft)
28.02.2005 22:00 -13,9 C 60 % 1016 hPa 0,0 l/m N -19,9 C -13,9 C 0,0 km/h (0 Bft)
28.02.2005 23:00 -14,6 C 60 % 1016 hPa 0,0 l/m W-NW -20,6 C -14,8 C 2,5 km/h (1 Bft)
01.03.2005 00:00 -15,0 C 60 % 1015 hPa 0,0 l/m NW -21,0 C -19,0 C 10,6 km/h (2 Bft)
01.03.2005 01:00 -15,6 C 60 % 1015 hPa 0,0 l/m NW -21,6 C -16,8 C 7,0 km/h (2 Bft)
01.03.2005 02:00 -16,3 C 60 % 1015 hPa 0,0 l/m W -22,3 C -16,6 C 2,4 km/h (1 Bft)
01.03.2005 03:00 -17,0 C 60 % 1014 hPa 0,0 l/m NW -22,8 C -17,0 C 0,3 km/h (0 Bft)
01.03.2005 04:00 -17,4 C 60 % 1013 hPa 0,0 l/m NW -23,3 C -17,4 C 0,9 km/h (0 Bft)
01.03.2005 05:00 -18,0 C 60 % 1013 hPa 0,0 l/m NW -23,8 C -18,3 C 3,1 km/h (1 Bft)
01.03.2005 06:00 -17,8 C 60 % 1012 hPa 0,0 l/m NW -23,7 C -17,9 C 3,0 km/h (1 Bft)
01.03.2005 07:00 -19,2 C 60 % 1012 hPa 0,0 l/m N -25,0 C -19,2 C 0,0 km/h (0 Bft)
01.03.2005 08:00 -17,2 C 60 % 1012 hPa 0,0 l/m N -23,1 C -17,2 C 0,0 km/h (0 Bft)
01.03.2005 09:00 -15,6 C 60 % 1012 hPa 0,0 l/m S-SW -21,6 C -15,7 C 0,9 km/h (0 Bft)
01.03.2005 10:00 -11,5 C 60 % 1012 hPa 0,0 l/m S-SW -17,7 C -12,2 C 4,0 km/h (1 Bft)
01.03.2005 11:00 -9,3 C 56 % 1012 hPa 0,0 l/m S-SW -16,5 C -10,1 C 5,0 km/h (1 Bft)
01.03.2005 12:00 -6,6 C 51 % 1012 hPa 0,0 l/m S-SO -15,1 C -8,4 C 8,5 km/h (2 Bft)
01.03.2005 13:00 -4,6 C 46 % 1011 hPa 0,0 l/m S -14,4 C -7,0 C 9,0 km/h (2 Bft)
01.03.2005 14:00 -3,6 C 44 % 1010 hPa 0,0 l/m S -13,9 C -7,3 C 10,5 km/h (2 Bft)
01.03.2005 15:00 -3,9 C 45 % 1010 hPa 0,0 l/m S-SW -14,1 C -5,3 C 7,3 km/h (2 Bft)
01.03.2005 16:00 -4,8 C 47 % 1010 hPa 0,0 l/m S -14,4 C -5,5 C 5,8 km/h (2 Bft)
01.03.2005 17:00 -6,0 C 51 % 1009 hPa 0,0 l/m S -14,5 C -6,2 C 2,6 km/h (1 Bft)
01.03.2005 18:00 -6,8 C 54 % 1009 hPa 0,0 l/m N -14,4 C -6,8 C 0,0 km/h (0 Bft)
01.03.2005 19:00 -7,5 C 57 % 1009 hPa 0,0 l/m N -14,6 C -7,5 C 0,0 km/h (0 Bft)
01.03.2005 20:00 -8,8 C 59 % 1009 hPa 0,0 l/m N -15,3 C -8,8 C 0,0 km/h (0 Bft)
01.03.2005 21:00 -10,2 C 61 % 1009 hPa 0,0 l/m N -16,3 C -10,2 C 0,0 km/h (0 Bft)
01.03.2005 22:00 -11,6 C 61 % 1009 hPa 0,0 l/m N -17,6 C -11,6 C 0,0 km/h (0 Bft)
01.03.2005 23:00 -12,8 C 61 % 1009 hPa 0,0 l/m N -18,7 C -12,8 C 0,0 km/h (0 Bft)
02.03.2005 00:00 -13,7 C 61 % 1009 hPa 0,0 l/m N -19,6 C -13,7 C 0,0 km/h (0 Bft)
02.03.2005 01:00 -14,9 C 61 % 1009 hPa 0,0 l/m N -20,7 C -14,9 C 0,0 km/h (0 Bft)
02.03.2005 02:00 -15,5 C 61 % 1008 hPa 0,0 l/m N -21,3 C -15,5 C 0,0 km/h (0 Bft)
02.03.2005 03:00 -16,0 C 61 % 1008 hPa 0,0 l/m N -21,8 C -16,0 C 0,0 km/h (0 Bft)
02.03.2005 04:00 -15,7 C 61 % 1007 hPa 0,0 l/m N -21,4 C -15,7 C 0,0 km/h (0 Bft)
02.03.2005 05:00 -15,4 C 61 % 1007 hPa 0,0 l/m N -21,1 C -15,4 C 0,0 km/h (0 Bft)
02.03.2005 06:00 -15,8 C 61 % 1007 hPa 0,0 l/m N -21,5 C -15,8 C 0,0 km/h (0 Bft)
02.03.2005 07:00 -16,1 C 61 % 1007 hPa 0,0 l/m N -21,8 C -16,1 C 0,0 km/h (0 Bft)
02.03.2005 08:00 -14,9 C 61 % 1007 hPa 0,0 l/m N -20,7 C -14,9 C 0,0 km/h (0 Bft)
02.03.2005 09:00 -11,7 C 63 % 1007 hPa 0,0 l/m N -17,3 C -11,7 C 0,0 km/h (0 Bft)
02.03.2005 10:00 -7,5 C 65 % 1007 hPa 0,0 l/m S -13,0 C -8,7 C 6,2 km/h (2 Bft)
02.03.2005 11:00 -4,5 C 58 % 1007 hPa 0,0 l/m S-SO -11,5 C -8,2 C 10,7 km/h (2 Bft)
02.03.2005 12:00 -2,0 C 52 % 1007 hPa 0,0 l/m S -10,6 C -5,4 C 10,9 km/h (2 Bft)
02.03.2005 13:00 -0,3 C 48 % 1007 hPa 0,0 l/m SO -9,9 C -4,4 C 12,2 km/h (2 Bft)
02.03.2005 14:00 0,7 C 46 % 1006 hPa 0,0 l/m S -9,6 C -3,4 C 12,6 km/h (3 Bft)
02.03.2005 15:00 0,4 C 45 % 1006 hPa 0,0 l/m S -10,0 C -3,3 C 11,8 km/h (2 Bft)
02.03.2005 16:00 -0,5 C 47 % 1006 hPa 0,0 l/m S -10,5 C -3,9 C 10,7 km/h (2 Bft)
02.03.2005 17:00 -1,5 C 48 % 1006 hPa 0,0 l/m S-SW -11,1 C -1,9 C 3,4 km/h (1 Bft)
02.03.2005 18:00 -3,0 C 52 % 1006 hPa 0,0 l/m N -11,4 C -3,0 C 0,0 km/h (0 Bft)
02.03.2005 19:00 -5,0 C 57 % 1006 hPa 0,0 l/m N -12,3 C -5,0 C 0,0 km/h (0 Bft)
02.03.2005 20:00 -6,6 C 61 % 1006 hPa 0,0 l/m N -12,9 C -6,6 C 0,0 km/h (0 Bft)
02.03.2005 21:00 -8,1 C 65 % 1007 hPa 0,0 l/m N -13,4 C -8,1 C 0,0 km/h (0 Bft)
02.03.2005 22:00 -9,2 C 70 % 1007 hPa 0,0 l/m N -13,7 C -9,2 C 0,0 km/h (0 Bft)
02.03.2005 23:00 -10,5 C 70 % 1007 hPa 0,0 l/m N -14,9 C -10,5 C 0,0 km/h (0 Bft)
03.03.2005 00:00 -11,1 C 70 % 1007 hPa 0,0 l/m N -15,5 C -11,1 C 0,0 km/h (0 Bft)
03.03.2005 01:00 -12,0 C 70 % 1007 hPa 0,0 l/m N -16,3 C -12,0 C 0,0 km/h (0 Bft)
03.03.2005 02:00 -12,5 C 70 % 1007 hPa 0,0 l/m N -16,8 C -12,5 C 0,0 km/h (0 Bft)
03.03.2005 03:00 -12,8 C 70 % 1007 hPa 0,0 l/m W -17,1 C -12,9 C 0,5 km/h (0 Bft)
03.03.2005 04:00 -12,9 C 70 % 1007 hPa 0,0 l/m N -17,2 C -12,9 C 0,0 km/h (0 Bft)
03.03.2005 05:00 -12,6 C 70 % 1007 hPa 0,0 l/m N -16,9 C -12,6 C 0,0 km/h (0 Bft)
03.03.2005 06:00 -11,7 C 70 % 1006 hPa 0,0 l/m N -16,0 C -11,7 C 0,0 km/h (0 Bft)
03.03.2005 07:00 -11,1 C 70 % 1006 hPa 0,0 l/m N -15,4 C -11,1 C 0,0 km/h (0 Bft)
03.03.2005 08:00 -9,7 C 78 % 1006 hPa 0,0 l/m N -12,9 C -9,7 C 0,0 km/h (0 Bft)
03.03.2005 09:00 -6,1 C 72 % 1007 hPa 0,0 l/m N -10,3 C -6,1 C 0,8 km/h (0 Bft)
03.03.2005 10:00 -1,5 C 50 % 1006 hPa 0,0 l/m N -10,7 C -1,8 C 2,5 km/h (1 Bft)
03.03.2005 11:00 1,2 C 44 % 1006 hPa 0,0 l/m NW -9,8 C 0,1 C 5,9 km/h (2 Bft)
03.03.2005 12:00 1,9 C 43 % 1006 hPa 0,0 l/m NW -9,3 C 0,4 C 9,0 km/h (2 Bft)
03.03.2005 13:00 2,8 C 43 % 1006 hPa 0,0 l/m NW -8,6 C 0,4 C 10,1 km/h (2 Bft)
03.03.2005 14:00 3,4 C 42 % 1006 hPa 0,0 l/m N -8,3 C 1,1 C 9,7 km/h (2 Bft)
03.03.2005 15:00 3,1 C 42 % 1006 hPa 0,0 l/m N-NW -8,5 C 0,6 C 10,3 km/h (2 Bft)
03.03.2005 16:00 2,2 C 43 % 1006 hPa 0,0 l/m N -9,1 C 0,7 C 8,4 km/h (2 Bft)
03.03.2005 17:00 1,2 C 45 % 1006 hPa 0,0 l/m N-NW -9,5 C -0,7 C 9,2 km/h (2 Bft)
03.03.2005 18:00 -1,1 C 51 % 1007 hPa 0,0 l/m NW -10,1 C -2,0 C 7,0 km/h (2 Bft)
03.03.2005 19:00 -2,9 C 55 % 1007 hPa 0,0 l/m NW -10,6 C -3,2 C 2,6 km/h (1 Bft)
03.03.2005 20:00 -4,1 C 60 % 1008 hPa 0,0 l/m N-NW -10,8 C -6,0 C 8,0 km/h (2 Bft)
03.03.2005 21:00 -4,8 C 62 % 1008 hPa 0,0 l/m N-NW -11,0 C -6,9 C 6,6 km/h (2 Bft)
03.03.2005 22:00 -5,8 C 63 % 1009 hPa 0,0 l/m W-NW -11,7 C -5,8 C 2,5 km/h (1 Bft)
03.03.2005 23:00 -6,2 C 66 % 1009 hPa 0,0 l/m W-NW -11,5 C -8,7 C 9,1 km/h (2 Bft)
04.03.2005 00:00 -6,5 C 67 % 1009 hPa 0,0 l/m NW -11,6 C -7,7 C 6,2 km/h (2 Bft)
04.03.2005 01:00 -7,2 C 68 % 1009 hPa 0,0 l/m W-NW -12,2 C -7,3 C 2,0 km/h (1 Bft)
04.03.2005 02:00 -7,7 C 69 % 1010 hPa 0,0 l/m W-NW -12,3 C -9,2 C 7,8 km/h (2 Bft)
04.03.2005 03:00 -8,2 C 70 % 1010 hPa 0,0 l/m NW -12,7 C -8,4 C 1,3 km/h (1 Bft)
04.03.2005 04:00 -9,3 C 72 % 1010 hPa 0,0 l/m N -13,4 C -9,3 C 0,0 km/h (0 Bft)
04.03.2005 05:00 -10,2 C 73 % 1010 hPa 0,0 l/m N -14,1 C -10,2 C 0,0 km/h (0 Bft)
04.03.2005 06:00 -10,6 C 73 % 1010 hPa 0,0 l/m N -14,5 C -10,6 C 0,0 km/h (0 Bft)
04.03.2005 07:00 -10,5 C 73 % 1011 hPa 0,0 l/m N -14,4 C -10,5 C 0,0 km/h (0 Bft)
04.03.2005 08:00 -8,8 C 78 % 1011 hPa 0,0 l/m N -12,0 C -8,8 C 0,0 km/h (0 Bft)
04.03.2005 09:00 -5,7 C 66 % 1012 hPa 0,0 l/m N -11,1 C -6,4 C 4,0 km/h (1 Bft)
04.03.2005 10:00 -3,6 C 56 % 1012 hPa 0,0 l/m N-NO -11,1 C -3,7 C 0,8 km/h (0 Bft)
04.03.2005 11:00 -1,6 C 50 % 1011 hPa 0,0 l/m S -10,8 C -2,2 C 2,9 km/h (1 Bft)
04.03.2005 12:00 0,6 C 44 % 1011 hPa 0,0 l/m S-SW -10,1 C -0,2 C 5,3 km/h (1 Bft)
04.03.2005 13:00 2,7 C 41 % 1010 hPa 0,0 l/m O-SO -9,1 C 2,7 C 1,8 km/h (1 Bft)
04.03.2005 14:00 4,0 C 37 % 1010 hPa 0,0 l/m S-SW -9,4 C 2,8 C 8,3 km/h (2 Bft)
04.03.2005 15:00 3,3 C 40 % 1009 hPa 0,0 l/m S -9,0 C 0,6 C 11,0 km/h (2 Bft)
04.03.2005 16:00 2,0 C 44 % 1008 hPa 0,0 l/m S-SW -9,0 C -1,5 C 11,4 km/h (2 Bft)
04.03.2005 17:00 1,1 C 47 % 1008 hPa 0,0 l/m SW -9,0 C -0,6 C 8,9 km/h (2 Bft)
04.03.2005 18:00 0,1 C 49 % 1008 hPa 0,0 l/m SW -9,4 C -0,2 C 7,0 km/h (2 Bft)
04.03.2005 19:00 -0,3 C 52 % 1008 hPa 0,0 l/m W-SW -9,0 C -0,8 C 4,0 km/h (1 Bft)
04.03.2005 20:00 -0,5 C 53 % 1008 hPa 0,0 l/m W -8,9 C -0,9 C 5,6 km/h (1 Bft)
04.03.2005 21:00 -1,7 C 55 % 1008 hPa 0,0 l/m N -9,4 C -1,7 C 0,0 km/h (0 Bft)
04.03.2005 22:00 -3,0 C 58 % 1008 hPa 0,0 l/m N -10,2 C -3,0 C 0,0 km/h (0 Bft)
04.03.2005 23:00 -3,8 C 62 % 1008 hPa 0,0 l/m N -10,0 C -3,8 C 0,0 km/h (0 Bft)
05.03.2005 00:00 -3,9 C 65 % 1007 hPa 0,0 l/m N -9,4 C -3,9 C 0,0 km/h (0 Bft)
05.03.2005 01:00 -3,8 C 69 % 1007 hPa 0,0 l/m N -8,8 C -3,8 C 0,0 km/h (0 Bft)
05.03.2005 02:00 -3,9 C 72 % 1006 hPa 0,0 l/m N -8,1 C -3,9 C 0,0 km/h (0 Bft)
05.03.2005 03:00 -4,8 C 78 % 1006 hPa 0,0 l/m N -7,9 C -4,8 C 0,0 km/h (0 Bft)
05.03.2005 04:00 -4,9 C 80 % 1005 hPa 0,0 l/m N -7,8 C -4,9 C 0,0 km/h (0 Bft)
05.03.2005 05:00 -4,6 C 83 % 1005 hPa 0,0 l/m N -7,1 C -4,6 C 0,0 km/h (0 Bft)
05.03.2005 06:00 -4,9 C 85 % 1004 hPa 0,0 l/m N -6,9 C -4,9 C 0,0 km/h (0 Bft)
05.03.2005 07:00 -4,4 C 89 % 1004 hPa 0,0 l/m N -6,0 C -4,4 C 0,0 km/h (0 Bft)
05.03.2005 08:00 -3,3 C 92 % 1004 hPa 0,0 l/m SW -4,4 C -3,3 C 0,8 km/h (0 Bft)
05.03.2005 09:00 -2,1 C 84 % 1004 hPa 0,0 l/m S -4,3 C -3,3 C 7,1 km/h (2 Bft)
05.03.2005 10:00 -1,3 C 78 % 1003 hPa 0,0 l/m S -4,6 C -3,7 C 9,8 km/h (2 Bft)
05.03.2005 11:00 -0,5 C 71 % 1003 hPa 0,0 l/m S -5,0 C -4,2 C 11,5 km/h (2 Bft)
05.03.2005 12:00 -0,3 C 71 % 1003 hPa 0,0 l/m S -5,0 C -3,3 C 10,2 km/h (2 Bft)
05.03.2005 13:00 -0,7 C 77 % 1003 hPa 0,0 l/m S-SW -4,2 C -3,6 C 10,7 km/h (2 Bft)
05.03.2005 14:00 -0,4 C 74 % 1003 hPa 0,0 l/m S-SW -4,4 C -4,4 C 12,3 km/h (3 Bft)
05.03.2005 15:00 0,3 C 60 % 1003 hPa 0,0 l/m S-SW -6,6 C -5,0 C 14,2 km/h (3 Bft)
05.03.2005 16:00 -0,1 C 60 % 1003 hPa 0,0 l/m S-SW -6,8 C -5,4 C 15,1 km/h (3 Bft)
05.03.2005 17:00 -0,7 C 65 % 1004 hPa 0,0 l/m SW -6,6 C -3,7 C 10,1 km/h (2 Bft)
05.03.2005 18:00 -1,5 C 72 % 1005 hPa 0,0 l/m W-SW -5,9 C -1,9 C 4,6 km/h (1 Bft)
05.03.2005 19:00 -2,0 C 80 % 1005 hPa 0,0 l/m S-SW -4,9 C -2,0 C 1,8 km/h (1 Bft)
05.03.2005 20:00 -2,5 C 86 % 1006 hPa 0,0 l/m N -4,5 C -2,5 C 0,0 km/h (0 Bft)
05.03.2005 21:00 -3,4 C 87 % 1006 hPa 0,0 l/m N -5,2 C -3,4 C 0,0 km/h (0 Bft)
05.03.2005 22:00 -4,2 C 86 % 1007 hPa 0,0 l/m N -6,2 C -4,2 C 0,0 km/h (0 Bft)
05.03.2005 23:00 -4,2 C 90 % 1007 hPa 0,0 l/m N -5,6 C -4,2 C 0,0 km/h (0 Bft)
06.03.2005 00:00 -4,2 C 93 % 1008 hPa 0,0 l/m N -5,2 C -4,2 C 0,0 km/h (0 Bft)
06.03.2005 01:00 -4,2 C 93 % 1008 hPa 0,0 l/m N -5,2 C -4,2 C 0,0 km/h (0 Bft)
06.03.2005 02:00 -4,5 C 93 % 1008 hPa 0,0 l/m N -5,4 C -4,5 C 0,0 km/h (0 Bft)
06.03.2005 03:00 -4,5 C 93 % 1008 hPa 0,0 l/m W-NW -5,4 C -4,5 C 0,6 km/h (0 Bft)
06.03.2005 04:00 -4,2 C 95 % 1009 hPa 0,0 l/m N-NW -5,0 C -4,5 C 3,1 km/h (1 Bft)
06.03.2005 05:00 -4,1 C 96 % 1009 hPa 0,0 l/m N-NO -4,6 C -5,1 C 4,5 km/h (1 Bft)
06.03.2005 06:00 -4,2 C 91 % 1010 hPa 0,0 l/m N-NO -5,4 C -8,4 C 11,3 km/h (2 Bft)
06.03.2005 07:00 -5,0 C 89 % 1011 hPa 0,0 l/m N-NO -6,5 C -11,2 C 14,9 km/h (3 Bft)
06.03.2005 08:00 -5,0 C 88 % 1012 hPa 0,0 l/m N-NO -6,6 C -10,7 C 13,4 km/h (3 Bft)
06.03.2005 09:00 -4,7 C 80 % 1013 hPa 0,0 l/m N-NO -7,5 C -10,6 C 14,3 km/h (3 Bft)
06.03.2005 10:00 -3,9 C 74 % 1013 hPa 0,0 l/m N-NO -7,8 C -9,5 C 13,9 km/h (3 Bft)
06.03.2005 11:00 -2,8 C 68 % 1014 hPa 0,0 l/m N-NO -7,8 C -8,2 C 13,0 km/h (3 Bft)
06.03.2005 12:00 -2,0 C 61 % 1014 hPa 0,0 l/m N -8,6 C -8,1 C 15,4 km/h (3 Bft)
06.03.2005 13:00 -1,5 C 55 % 1014 hPa 0,0 l/m N -9,4 C -7,8 C 15,6 km/h (3 Bft)
06.03.2005 14:00 -1,6 C 50 % 1015 hPa 0,0 l/m N-NO -10,6 C -7,9 C 15,9 km/h (3 Bft)
06.03.2005 15:00 -2,2 C 58 % 1015 hPa 0,0 l/m N-NW -9,5 C -8,6 C 15,5 km/h (3 Bft)
06.03.2005 16:00 -3,0 C 61 % 1016 hPa 0,0 l/m N -9,5 C -8,7 C 14,3 km/h (3 Bft)
06.03.2005 17:00 -3,8 C 63 % 1016 hPa 0,0 l/m N -9,8 C -7,8 C 11,5 km/h (2 Bft)
06.03.2005 18:00 -4,8 C 67 % 1017 hPa 0,0 l/m N -9,9 C -7,2 C 8,6 km/h (2 Bft)
06.03.2005 19:00 -5,9 C 73 % 1018 hPa 0,0 l/m N-NW -9,8 C -6,6 C 4,4 km/h (1 Bft)
06.03.2005 20:00 -6,5 C 79 % 1018 hPa 0,0 l/m N-NW -9,5 C -7,3 C 5,9 km/h (2 Bft)
06.03.2005 21:00 -7,2 C 82 % 1019 hPa 0,0 l/m W-NW -9,8 C -7,3 C 3,6 km/h (1 Bft)
06.03.2005 22:00 -8,7 C 82 % 1019 hPa 0,0 l/m N -11,2 C -8,7 C 0,0 km/h (0 Bft)
06.03.2005 23:00 -10,1 C 82 % 1019 hPa 0,0 l/m N -12,5 C -10,1 C 0,0 km/h (0 Bft)
Min-Datum _ 01.03.05 04.03.05 05.03.05 - - 01.03.05 28.02.05 28.02.05
_ Min-Zeit 07:34 14:16 10:00 - - 07:34 03:17 00:23
Minimum _ -19,8 C 36 % 1003 hPa - - -25,5 C -23,8 C 0,0 km/h (0 Bft)
Max-Datum _ 04.03.05 06.03.05 28.02.05 28.02.05 - 05.03.05 04.03.05 05.03.05
_ Max-Zeit 14:33 04:57 08:28 00:00 - 13:44 14:42 16:32
Maximum _ 4,2 C 96 % 1020 hPa 0,0 l/m - -3,8 C 4,2 C 28,7 km/h
S-SW (4 Bft)
Durchschnitt _ -6,7 C 65 % 1010 hPa #0,0 l/m N -12,4 C -8,4 C 5,4 km/h (1 Bft)

Durchschnitt Minimum Temp.-7,4 C
Durchschnitt Maximum Temp.-5,9 C